Historique des mesures à Cassis (13260), France
Quotidien Résumé Juin 14, 2021 Unités:  Métrique    US   Métrique/US
Quotidien Hebdomadaire Mensuel Annuel
  Maximum: Minimum: Moyenne:
Température: 34.6 °C 24.3 °C 29.3 °C
Point de rosée: 20.9 °C 14.3 °C 17.6 °C
Humidité: 68% 40% 50%
Vitesse du vent: 5.8km/h 0km/h 2km/h
Rafales: 11.2km/h - -
Vent- - South
Pression: 1017.4 hPa 1014.6 hPa -
Précipitations: 0.0 mm    
Historical Graphs
 
 
Mesures pour : Juin 14, 2021
Heure Temperature Point de rosée Pression Vent Vitesse du vent Rafales Humidité Pluie (par heure)
00:11 26.1 °C 15.8 °C 1017.4 hPa NNW 3.2 km/h 7.2 km/h 53% 0.0 mm
01:11 25.8 °C 15.5 °C 1017.2 hPa NNW 2.9 km/h 4 km/h 53% 0.0 mm
02:11 25.8 °C 15.5 °C 1016.7 hPa Calm   6.5 km/h 53% 0.0 mm
03:11 25.3 °C 17.2 °C 1016.2 hPa West 4.3 km/h 6.5 km/h 61% 0.0 mm
04:11 25.8 °C 15.5 °C 1015.9 hPa Calm   4.7 km/h 53% 0.0 mm
05:11 25.1 °C 18.8 °C 1015.8 hPa Calm     68% 0.0 mm
06:11 24.3 °C 16.3 °C 1015.9 hPa North 5.8 km/h 6.5 km/h 61% 0.0 mm
07:11 25.6 °C 15.9 °C 1016.0 hPa NW 4 km/h 5.4 km/h 55% 0.0 mm
08:11 30.3 °C 18.1 °C 1016.1 hPa Calm   3.6 km/h 48% 0.0 mm
09:11 30.3 °C 19.1 °C 1016.2 hPa NW 3.2 km/h 4.7 km/h 51% 0.0 mm
10:11 29.1 °C 19.4 °C 1016.7 hPa Calm   7.2 km/h 56% 0.0 mm
11:11 32.7 °C 20.6 °C 1016.5 hPa Calm   11.2 km/h 49% 0.0 mm
12:11 34.2 °C 19.4 °C 1016.3 hPa ESE 1.8 km/h 6.5 km/h 42% 0.0 mm
13:11 34 °C 18.5 °C 1016.2 hPa SE 3.6 km/h 7.2 km/h 40% 0.0 mm
14:11 34.6 °C 19.4 °C 1015.9 hPa ESE 5 km/h 7.2 km/h 41% 0.0 mm
15:11 34.2 °C 20.9 °C 1015.8 hPa SE 3.6 km/h 9.4 km/h 46% 0.0 mm
16:11 33.4 °C 20.8 °C 1015.6 hPa SE 3.2 km/h 11.2 km/h 48% 0.0 mm
17:11 32.8 °C 19.9 °C 1015.1 hPa Calm   5 km/h 47% 0.0 mm
18:11 32.3 °C 18.8 °C 1015.1 hPa SE 2.9 km/h 10.4 km/h 45% 0.0 mm
19:11 31.4 °C 17.6 °C 1014.9 hPa Calm   4 km/h 44% 0.0 mm
20:11 30.1 °C 16.5 °C 1014.6 hPa Calm     44% 0.0 mm
21:11 28.2 °C 15.1 °C 1015.0 hPa Calm     45% 0.0 mm
22:11 26.8 °C 14.5 °C 1015.1 hPa Calm   4 km/h 47% 0.0 mm
23:11 25.8 °C 14.3 °C 1014.7 hPa North 3.6 km/h 5 km/h 49% 0.0 mm
Observations météo à CASSIS
WU-History script by Weather Underground - 2 mb